Overview Statistics Trail Chart Weather Telemetry Raw packets
 

This is the latest recevied weather packets stored in our database for station/object OK1FET-5. If no packets are shown the sender has not sent any weather packets the latest 10 day(s).

<< 41 42 43 44 45 46 47 >>
Time Temp. Humidity Pressure Rain* Wind** Luminosity Snow
1787918823 28.33° C 44% 1013.1 hPa - - - -
1787918227 27.78° C 45% 1013.4 hPa - - - -
1787917035 27.78° C 44% 1013.2 hPa - - - -
1787916440 27.78° C 45% 1013.1 hPa - - - -
1787915844 27.78° C 44% 1013.5 hPa - - - -
1787915248 28.89° C 42% 1013.4 hPa - - - -
1787914652 28.89° C 42% 1013.5 hPa - - - -
1787913461 27.78° C 43% 1014 hPa - - - -
1787912865 27.78° C 44% 1014.4 hPa - - - -
1787912269 26.11° C 46% 1013.3 hPa - - - -
1787911673 26.11° C 47% 1013.2 hPa - - - -
1787911077 26.67° C 46% 1013.1 hPa - - - -
1787910482 26.11° C 46% 1013.2 hPa - - - -
1787909886 26.67° C 45% 1013.5 hPa - - - -
1787909290 25° C 48% 1013.4 hPa - - - -
1787908694 24.44° C 51% 1014 hPa - - - -
1787908099 25.56° C 47% 1014.2 hPa - - - -
1787907503 25° C 49% 1014.7 hPa - - - -
1787906907 25.56° C 47% 1014.9 hPa - - - -
1787906311 26.11° C 47% 1015.3 hPa - - - -
1787905716 25.56° C 48% 1015.8 hPa - - - -
1787905120 25° C 49% 1016.1 hPa - - - -
1787904524 23.89° C 52% 1016.3 hPa - - - -
1787903928 23.33° C 52% 1015.9 hPa - - - -
1787903332 22.78° C 55% 1015.4 hPa - - - -

* Rain since midnight (hover to see other rain measurements)
** Current wind speed in m/s (hover to see current wind gust speed)